createdAt,value
2018-09-17T00:01:34.841Z,58.00
2018-09-17T00:04:03.803Z,58.19
2018-09-17T00:06:32.708Z,58.18
2018-09-17T00:09:01.610Z,58.13
2018-09-17T00:11:30.505Z,58.23
2018-09-17T00:13:59.584Z,58.41
2018-09-17T00:16:28.537Z,58.04
2018-09-17T00:18:57.556Z,58.02
2018-09-17T00:21:26.486Z,57.78
2018-09-17T00:23:55.403Z,58.03
2018-09-17T00:26:24.352Z,57.73
2018-09-17T00:28:53.284Z,57.93
2018-09-17T00:31:22.196Z,57.88
2018-09-17T00:33:51.326Z,58.21
2018-09-17T00:36:20.221Z,57.92
2018-09-17T00:38:49.184Z,57.90
2018-09-17T00:41:18.084Z,57.91
2018-09-17T00:43:46.982Z,58.07
2018-09-17T00:46:15.854Z,58.72
2018-09-17T00:48:44.799Z,58.49
2018-09-17T00:51:14.384Z,58.81
2018-09-17T00:53:43.309Z,59.06
2018-09-17T00:56:12.247Z,59.16
2018-09-17T00:58:41.188Z,59.29
2018-09-17T01:01:10.197Z,59.31
2018-09-17T01:03:39.075Z,59.15
2018-09-17T01:06:08.037Z,59.23
2018-09-17T01:08:36.928Z,59.59
2018-09-17T01:11:05.845Z,60.17
2018-09-17T01:13:34.759Z,59.46
2018-09-17T01:16:03.667Z,59.36
2018-09-17T01:18:32.639Z,58.63
2018-09-17T01:21:01.551Z,58.57
2018-09-17T01:23:31.373Z,58.67
2018-09-17T01:26:00.252Z,58.82
2018-09-17T01:28:29.220Z,59.03
2018-09-17T01:30:58.093Z,59.59
2018-09-17T01:33:26.966Z,59.42
2018-09-17T01:35:55.856Z,59.59
2018-09-17T01:38:24.791Z,59.37
2018-09-17T01:40:53.787Z,59.49
2018-09-17T01:43:22.748Z,59.15
2018-09-17T01:45:51.732Z,59.47
2018-09-17T01:48:20.691Z,59.30
2018-09-17T01:50:49.568Z,59.56
2018-09-17T01:53:18.408Z,58.96
2018-09-17T01:55:47.338Z,58.85
2018-09-17T01:58:16.200Z,59.13
2018-09-17T02:00:45.072Z,59.19
2018-09-17T02:03:14.066Z,59.15
2018-09-17T02:05:42.942Z,58.25
2018-09-17T02:08:11.906Z,58.72
2018-09-17T02:10:40.739Z,58.41
2018-09-17T02:13:09.664Z,58.90
2018-09-17T02:15:38.562Z,58.91
2018-09-17T02:18:07.503Z,59.22
2018-09-17T02:20:36.386Z,59.45
2018-09-17T02:23:05.303Z,59.68
2018-09-17T02:25:34.214Z,59.79
2018-09-17T02:28:03.100Z,60.14
2018-09-17T02:30:32.012Z,60.71
2018-09-17T02:33:00.912Z,60.10
2018-09-17T02:35:29.822Z,60.10
2018-09-17T02:37:58.735Z,60.25
2018-09-17T02:40:27.706Z,60.26
2018-09-17T02:42:56.619Z,61.38
2018-09-17T02:45:25.573Z,61.66
2018-09-17T02:47:54.601Z,61.81
2018-09-17T02:50:23.520Z,61.10
2018-09-17T02:52:52.411Z,60.14
2018-09-17T02:55:21.330Z,60.09
2018-09-17T02:57:50.317Z,60.43
2018-09-17T03:00:20.720Z,60.57
2018-09-17T03:02:51.436Z,60.08
2018-09-17T03:05:20.359Z,60.39
2018-09-17T03:07:49.326Z,60.13
2018-09-17T03:10:18.255Z,60.48
2018-09-17T03:12:47.190Z,60.75
2018-09-17T03:15:26.984Z,60.69
2018-09-17T03:17:55.872Z,60.61
2018-09-17T03:20:24.793Z,60.92
2018-09-17T03:22:53.732Z,60.81
2018-09-17T03:25:23.548Z,60.99
2018-09-17T03:27:52.443Z,61.13
2018-09-17T03:30:21.435Z,61.37
2018-09-17T03:32:50.356Z,61.84
2018-09-17T03:35:19.263Z,61.88
2018-09-17T03:37:48.160Z,61.95
2018-09-17T03:40:17.048Z,62.20
2018-09-17T03:42:45.942Z,62.27
2018-09-17T03:45:14.840Z,62.22
2018-09-17T03:47:43.744Z,62.62
2018-09-17T03:50:12.680Z,62.42
2018-09-17T03:52:41.587Z,62.20
2018-09-17T03:55:16.834Z,61.77
2018-09-17T03:57:45.800Z,61.94
2018-09-17T04:00:14.716Z,62.08
2018-09-17T04:02:43.605Z,61.85
2018-09-17T04:05:12.491Z,61.60
2018-09-17T04:07:41.379Z,61.91
2018-09-17T04:10:10.296Z,61.53
2018-09-17T04:12:39.189Z,62.58
2018-09-17T04:15:08.270Z,61.99
2018-09-17T04:17:37.201Z,61.52
2018-09-17T04:20:06.150Z,61.46
2018-09-17T04:22:35.060Z,60.85
2018-09-17T04:25:04.075Z,60.93
2018-09-17T04:27:32.994Z,61.10
2018-09-17T04:30:01.928Z,60.90
2018-09-17T04:32:30.856Z,61.07
2018-09-17T04:34:59.766Z,60.91
2018-09-17T04:37:29.006Z,60.83
2018-09-17T04:39:58.072Z,60.67
2018-09-17T04:42:27.056Z,60.77
2018-09-17T04:44:55.952Z,61.05
2018-09-17T04:47:25.152Z,60.83
2018-09-17T04:49:54.172Z,60.95
2018-09-17T04:52:23.068Z,60.65
2018-09-17T04:54:52.096Z,60.61
2018-09-17T04:57:21.048Z,60.87
2018-09-17T04:59:50.075Z,60.60
2018-09-17T05:02:19.012Z,60.64
2018-09-17T05:04:47.974Z,60.38
2018-09-17T05:07:16.965Z,59.92
2018-09-17T05:09:47.434Z,59.92
2018-09-17T05:12:16.456Z,59.64
2018-09-17T05:14:45.339Z,59.63
2018-09-17T05:17:14.339Z,59.36
2018-09-17T05:19:43.243Z,59.38
2018-09-17T05:22:12.135Z,59.05
2018-09-17T05:24:41.020Z,59.26
2018-09-17T05:27:09.972Z,58.89
2018-09-17T05:29:38.887Z,58.85
2018-09-17T05:32:07.828Z,58.74
2018-09-17T05:34:36.727Z,58.29
2018-09-17T05:37:05.755Z,58.44
2018-09-17T05:39:34.736Z,58.76
2018-09-17T05:42:03.643Z,58.57
2018-09-17T05:44:32.593Z,58.22
2018-09-17T05:47:01.472Z,58.39
2018-09-17T05:49:30.538Z,57.83
2018-09-17T05:51:59.422Z,58.00
2018-09-17T05:54:28.320Z,57.33
2018-09-17T05:56:57.331Z,58.20
2018-09-17T05:59:26.252Z,57.19
2018-09-17T06:01:55.164Z,57.53
2018-09-17T06:04:24.053Z,57.28
2018-09-17T06:06:52.963Z,57.40
2018-09-17T06:09:21.883Z,56.46
2018-09-17T06:11:52.213Z,56.78
2018-09-17T06:14:21.119Z,56.21
2018-09-17T06:16:50.034Z,57.06
2018-09-17T06:19:18.960Z,56.71
2018-09-17T06:21:47.880Z,56.31
2018-09-17T06:24:16.779Z,55.67
2018-09-17T06:26:45.685Z,55.70
2018-09-17T06:29:14.624Z,55.22
2018-09-17T06:31:43.531Z,55.68
2018-09-17T06:34:12.496Z,54.66
2018-09-17T06:36:41.383Z,54.71
2018-09-17T06:39:10.917Z,55.28
2018-09-17T06:41:39.903Z,55.46
2018-09-17T06:44:08.881Z,55.48
2018-09-17T06:46:37.774Z,55.25
2018-09-17T06:49:06.694Z,54.72
2018-09-17T06:51:35.592Z,54.57
2018-09-17T06:54:04.545Z,53.79
2018-09-17T06:56:35.953Z,54.02
2018-09-17T06:59:04.855Z,54.83
2018-09-17T07:01:33.789Z,55.09
2018-09-17T07:04:02.683Z,54.54
2018-09-17T07:06:31.579Z,53.89
2018-09-17T07:09:00.490Z,54.01
2018-09-17T07:11:29.400Z,54.76
2018-09-17T07:13:58.314Z,53.81
2018-09-17T07:16:27.226Z,54.17
2018-09-17T07:18:56.298Z,54.36
2018-09-17T07:21:25.254Z,53.84
2018-09-17T07:23:54.156Z,54.43
2018-09-17T07:26:23.152Z,53.83
2018-09-17T07:28:52.064Z,55.50
2018-09-17T07:31:21.030Z,55.87
2018-09-17T07:33:49.930Z,56.35
2018-09-17T07:36:18.896Z,55.10
2018-09-17T07:38:47.803Z,55.51
2018-09-17T07:41:16.756Z,56.76
2018-09-17T07:43:45.655Z,56.42
2018-09-17T07:46:14.908Z,55.51
2018-09-17T07:48:43.831Z,55.81
2018-09-17T07:51:12.708Z,55.32
2018-09-17T07:53:41.710Z,55.09
2018-09-17T07:56:10.617Z,54.32
2018-09-17T07:58:39.507Z,54.36
2018-09-17T08:01:08.597Z,54.30
2018-09-17T08:03:37.564Z,53.94
2018-09-17T08:06:06.487Z,54.16
2018-09-17T08:08:35.380Z,54.72
2018-09-17T08:11:04.311Z,55.50
2018-09-17T08:13:33.209Z,54.19
2018-09-17T08:16:02.127Z,53.71
2018-09-17T08:18:31.009Z,53.42
2018-09-17T08:20:59.916Z,54.67
2018-09-17T08:23:28.818Z,54.03
2018-09-17T08:25:57.764Z,55.02
2018-09-17T08:28:26.671Z,54.93
2018-09-17T08:30:55.570Z,55.50
2018-09-17T08:33:24.509Z,55.16
2018-09-17T08:35:53.405Z,55.69
2018-09-17T08:38:22.375Z,56.11
2018-09-17T08:40:51.260Z,56.09
2018-09-17T08:43:20.172Z,56.01
2018-09-17T08:45:49.473Z,55.50
2018-09-17T08:48:18.436Z,55.71
2018-09-17T08:50:47.384Z,55.58
2018-09-17T08:53:16.276Z,56.42
2018-09-17T08:55:45.202Z,55.30
2018-09-17T08:58:19.156Z,55.87
2018-09-17T09:00:53.266Z,55.81
2018-09-17T09:03:27.277Z,55.65
2018-09-17T09:06:01.245Z,56.08
2018-09-17T09:08:30.159Z,57.11
2018-09-17T09:11:04.220Z,57.58
2018-09-17T09:13:39.046Z,57.34
2018-09-17T09:18:31.131Z,56.68
2018-09-17T09:21:00.066Z,56.56
2018-09-17T09:23:28.964Z,56.41
2018-09-17T09:25:58.060Z,56.19
2018-09-17T09:28:26.976Z,56.34
2018-09-17T09:30:56.012Z,56.50
2018-09-17T09:33:24.886Z,56.95
2018-09-17T09:35:53.788Z,55.60
2018-09-17T09:38:22.721Z,56.25
2018-09-17T09:40:51.616Z,56.21
2018-09-17T09:43:20.536Z,55.78
2018-09-17T09:45:49.434Z,55.41
2018-09-17T09:48:18.393Z,55.81
2018-09-17T09:50:47.288Z,55.15
2018-09-17T09:53:16.199Z,55.69
2018-09-17T09:55:45.087Z,55.17
2018-09-17T09:58:13.970Z,55.57
2018-09-17T10:00:48.040Z,54.91
2018-09-17T10:03:17.656Z,55.49
2018-09-17T10:05:46.671Z,55.00
2018-09-17T10:08:15.592Z,54.55
2018-09-17T10:10:49.727Z,54.01
2018-09-17T10:13:23.708Z,54.50
2018-09-17T10:15:57.479Z,54.44
2018-09-17T10:18:31.469Z,54.03
2018-09-17T10:21:00.424Z,54.27
2018-09-17T10:23:29.388Z,54.28
2018-09-17T10:25:58.319Z,54.32
2018-09-17T10:28:27.276Z,54.20
2018-09-17T10:30:56.171Z,53.66
2018-09-17T10:33:25.085Z,53.45
2018-09-17T10:35:53.989Z,53.41
2018-09-17T10:38:22.892Z,52.21
2018-09-17T10:40:51.781Z,52.19
2018-09-17T10:43:20.783Z,52.71
2018-09-17T10:45:49.688Z,52.72
2018-09-17T10:48:18.636Z,52.27
2018-09-17T10:50:47.539Z,52.27
2018-09-17T10:53:16.476Z,51.49
2018-09-17T10:55:45.393Z,51.81
2018-09-17T10:58:14.292Z,51.63
2018-09-17T11:00:43.298Z,51.26
2018-09-17T11:03:12.209Z,51.68
2018-09-17T11:05:41.113Z,50.45
2018-09-17T11:08:10.024Z,50.62
2018-09-17T11:10:38.983Z,51.18
2018-09-17T11:13:07.901Z,50.66
2018-09-17T11:15:42.030Z,50.41
2018-09-17T11:18:10.965Z,50.88
2018-09-17T11:20:39.852Z,50.69
2018-09-17T11:23:08.898Z,51.50
2018-09-17T11:25:37.804Z,50.45
2018-09-17T11:28:06.712Z,50.47
2018-09-17T11:30:35.695Z,49.90
2018-09-17T11:33:04.687Z,49.35
2018-09-17T11:35:33.704Z,50.35
2018-09-17T11:38:02.789Z,49.67
2018-09-17T11:40:31.797Z,48.74
2018-09-17T11:43:00.707Z,49.65
2018-09-17T11:45:29.669Z,49.78
2018-09-17T11:47:58.530Z,49.59
2018-09-17T11:50:27.509Z,50.19
2018-09-17T11:52:56.435Z,49.80
2018-09-17T11:55:25.338Z,49.59
2018-09-17T11:57:54.247Z,49.60
2018-09-17T12:00:28.268Z,48.68
2018-09-17T12:03:02.367Z,48.42
2018-09-17T12:05:36.480Z,48.00
2018-09-17T12:08:11.053Z,48.70
2018-09-17T12:10:39.945Z,47.54
2018-09-17T12:13:08.835Z,48.31
2018-09-17T12:15:41.665Z,47.63
2018-09-17T12:18:13.471Z,48.80
2018-09-17T12:20:42.484Z,47.22
2018-09-17T12:23:11.790Z,45.63
2018-09-17T12:25:40.701Z,46.75
2018-09-17T12:30:53.613Z,46.19
2018-09-17T12:33:22.496Z,46.08
2018-09-17T12:35:54.591Z,45.73
2018-09-17T12:38:25.818Z,47.11
2018-09-17T12:40:54.710Z,46.16
2018-09-17T12:43:23.682Z,45.32
2018-09-17T12:45:52.631Z,45.15
2018-09-17T12:48:21.524Z,46.15
2018-09-17T12:50:50.403Z,45.72
2018-09-17T12:53:19.408Z,45.83
2018-09-17T12:55:48.344Z,44.79
2018-09-17T12:58:17.355Z,44.94
2018-09-17T13:00:46.417Z,44.77
2018-09-17T13:03:15.392Z,44.83
2018-09-17T13:05:44.339Z,44.50
2018-09-17T13:08:13.361Z,44.32
2018-09-17T13:10:42.249Z,45.66
2018-09-17T13:13:11.174Z,44.92
2018-09-17T13:15:45.188Z,44.64
2018-09-17T13:18:14.136Z,44.66
2018-09-17T13:20:43.147Z,44.47
2018-09-17T13:23:12.079Z,43.71
2018-09-17T13:25:41.074Z,44.62
2018-09-17T13:28:10.210Z,44.91
2018-09-17T13:30:39.128Z,44.11
2018-09-17T13:33:08.053Z,44.59
2018-09-17T13:35:36.959Z,44.06
2018-09-17T13:38:05.995Z,45.19
2018-09-17T13:40:34.905Z,45.64
2018-09-17T13:43:03.948Z,45.98
2018-09-17T13:45:32.905Z,43.97
2018-09-17T13:48:01.872Z,42.76
2018-09-17T13:50:30.782Z,43.39
2018-09-17T13:53:00.434Z,42.23
2018-09-17T13:55:29.339Z,43.39
2018-09-17T13:57:58.259Z,42.68
2018-09-17T14:00:27.478Z,43.37
2018-09-17T14:02:56.355Z,43.90
2018-09-17T14:05:25.414Z,45.22
2018-09-17T14:07:54.320Z,45.40
2018-09-17T14:10:23.258Z,44.83
2018-09-17T14:12:52.215Z,45.42
2018-09-17T14:15:21.103Z,44.73
2018-09-17T14:17:50.011Z,44.00
2018-09-17T14:20:18.968Z,43.77
2018-09-17T14:22:47.966Z,44.80
2018-09-17T14:25:16.907Z,44.78
2018-09-17T14:27:45.851Z,44.76
2018-09-17T14:30:14.751Z,44.77
2018-09-17T14:32:48.880Z,43.88
2018-09-17T14:35:17.867Z,44.40
2018-09-17T14:37:46.858Z,43.64
2018-09-17T14:40:15.751Z,44.17
2018-09-17T14:42:44.639Z,43.77
2018-09-17T14:45:13.581Z,44.43
2018-09-17T14:47:42.479Z,44.70
2018-09-17T14:50:11.427Z,45.12
2018-09-17T14:52:40.315Z,45.08
2018-09-17T14:55:09.269Z,45.09
2018-09-17T14:57:38.188Z,44.01
2018-09-17T15:00:07.209Z,44.09
2018-09-17T15:02:36.139Z,44.50
2018-09-17T15:05:05.121Z,44.08
2018-09-17T15:07:34.097Z,43.77
2018-09-17T15:10:03.021Z,44.78
2018-09-17T15:12:32.191Z,45.20
2018-09-17T15:15:01.126Z,44.46
2018-09-17T15:17:30.071Z,45.65
2018-09-17T15:19:59.052Z,45.25
2018-09-17T15:22:28.036Z,44.75
2018-09-17T15:24:57.111Z,44.47
2018-09-17T15:27:26.022Z,45.41
2018-09-17T15:29:54.977Z,44.98
2018-09-17T15:32:23.967Z,45.16
2018-09-17T15:34:52.912Z,45.23
2018-09-17T15:37:21.894Z,44.38
2018-09-17T15:39:50.891Z,45.08
2018-09-17T15:42:19.789Z,44.54
2018-09-17T15:44:48.727Z,45.50
2018-09-17T15:47:17.780Z,45.52
2018-09-17T15:49:46.755Z,45.90
2018-09-17T15:52:15.723Z,45.36
2018-09-17T15:54:45.274Z,45.03
2018-09-17T15:57:14.254Z,45.04
2018-09-17T15:59:43.160Z,45.55
2018-09-17T16:02:12.115Z,45.67
2018-09-17T16:04:41.105Z,46.08
2018-09-17T16:07:10.034Z,45.85
2018-09-17T16:09:38.966Z,46.35
2018-09-17T16:12:07.855Z,45.92
2018-09-17T16:14:36.747Z,47.88
2018-09-17T16:17:05.767Z,48.37
2018-09-17T16:19:34.729Z,48.95
2018-09-17T16:22:03.666Z,49.38
2018-09-17T16:24:32.609Z,48.24
2018-09-17T16:27:01.573Z,49.04
2018-09-17T16:29:30.474Z,48.78
2018-09-17T16:31:59.378Z,48.48
2018-09-17T16:34:28.303Z,48.49
2018-09-17T16:36:58.336Z,49.40
2018-09-17T16:39:27.264Z,50.30
2018-09-17T16:41:56.274Z,49.25
2018-09-17T16:44:25.252Z,47.50
2018-09-17T16:46:54.257Z,48.81
2018-09-17T16:49:23.204Z,48.06
2018-09-17T16:51:52.447Z,48.05
2018-09-17T16:54:21.408Z,49.53
2018-09-17T16:56:50.384Z,48.51
2018-09-17T16:59:50.521Z,48.70
2018-09-17T17:02:19.401Z,49.07
2018-09-17T17:04:48.433Z,49.14
2018-09-17T17:07:17.582Z,50.42
2018-09-17T17:09:46.673Z,61.60
2018-09-17T17:12:15.575Z,59.07
2018-09-17T17:14:44.492Z,60.26
2018-09-17T17:17:13.412Z,60.74
2018-09-17T17:19:42.324Z,59.15
2018-09-17T17:22:11.366Z,60.34
2018-09-17T17:24:40.276Z,57.35
2018-09-17T17:27:09.241Z,55.65
2018-09-17T17:29:38.236Z,53.30
2018-09-17T17:32:07.251Z,52.97
2018-09-17T17:34:36.184Z,53.03
2018-09-17T17:37:05.292Z,48.69
2018-09-17T17:39:34.275Z,51.76
2018-09-17T17:42:03.124Z,50.78
2018-09-17T17:44:32.051Z,49.20
2018-09-17T17:47:01.084Z,48.72
2018-09-17T17:50:33.294Z,49.20
2018-09-17T17:53:02.441Z,49.87
2018-09-17T17:55:31.520Z,50.96
2018-09-17T17:58:00.531Z,49.48
2018-09-17T18:00:29.524Z,49.15
2018-09-17T18:02:58.457Z,48.37
2018-09-17T18:05:27.346Z,48.88
2018-09-17T18:07:56.251Z,48.96
2018-09-17T18:10:25.188Z,50.38
2018-09-17T18:12:54.172Z,49.92
2018-09-17T18:15:23.299Z,49.56
2018-09-17T18:17:52.200Z,49.31
2018-09-17T18:20:21.122Z,50.11
2018-09-17T18:22:50.092Z,49.86
2018-09-17T18:25:18.973Z,50.78
2018-09-17T18:27:47.851Z,51.06
2018-09-17T18:30:16.807Z,51.01
2018-09-17T18:32:45.720Z,51.91
2018-09-17T18:35:14.655Z,51.58
2018-09-17T18:37:43.751Z,50.70
2018-09-17T18:40:12.796Z,51.17
2018-09-17T18:42:41.869Z,51.78
2018-09-17T18:45:10.807Z,52.70
2018-09-17T18:47:39.761Z,52.19
2018-09-17T18:50:08.939Z,51.73
2018-09-17T18:52:37.920Z,51.29
2018-09-17T18:55:06.906Z,51.78
2018-09-17T18:57:35.957Z,52.79
2018-09-17T19:00:05.103Z,52.74
2018-09-17T19:02:34.020Z,51.44
2018-09-17T19:05:02.995Z,52.12
2018-09-17T19:07:32.003Z,52.59
2018-09-17T19:10:00.928Z,51.95
2018-09-17T19:12:29.877Z,51.82
2018-09-17T19:15:04.154Z,52.98
2018-09-17T19:17:38.268Z,51.98
2018-09-17T19:20:08.651Z,52.29
2018-09-17T19:22:42.656Z,52.77
2018-09-17T19:25:13.686Z,52.64
2018-09-17T19:27:47.813Z,53.49
2018-09-17T19:30:17.104Z,53.37
2018-09-17T19:32:46.163Z,51.66
2018-09-17T19:35:15.152Z,52.83
2018-09-17T19:37:49.243Z,52.52
2018-09-17T19:40:19.626Z,52.25
2018-09-17T19:42:49.260Z,52.45
2018-09-17T19:45:23.345Z,53.38
2018-09-17T19:47:53.037Z,53.43
2018-09-17T19:50:27.183Z,54.54
2018-09-17T19:52:56.036Z,54.43
2018-09-17T19:55:24.989Z,54.66
2018-09-17T19:57:58.931Z,54.42
2018-09-17T20:00:27.856Z,54.52
2018-09-17T20:02:56.747Z,54.53
2018-09-17T20:05:30.859Z,54.77
2018-09-17T20:07:59.856Z,54.57
2018-09-17T20:10:28.821Z,54.11
2018-09-17T20:12:57.754Z,54.37
2018-09-17T20:15:26.708Z,54.03
2018-09-17T20:17:55.676Z,54.83
2018-09-17T20:20:24.660Z,54.87
2018-09-17T20:22:53.560Z,54.46
2018-09-17T20:25:22.464Z,54.15
2018-09-17T20:27:51.435Z,53.72
2018-09-17T20:30:20.364Z,53.57
2018-09-17T20:32:49.720Z,54.21
2018-09-17T20:35:18.707Z,54.83
2018-09-17T20:37:47.614Z,55.64
2018-09-17T20:40:16.692Z,54.72
2018-09-17T20:42:45.595Z,54.97
2018-09-17T20:45:14.479Z,55.85
2018-09-17T20:47:43.400Z,55.17
2018-09-17T20:50:12.352Z,54.99
2018-09-17T20:52:41.402Z,56.47
2018-09-17T20:55:10.327Z,55.54
2018-09-17T20:57:39.242Z,56.12
2018-09-17T21:00:08.195Z,55.99
2018-09-17T21:02:37.206Z,56.48
2018-09-17T21:05:06.136Z,56.30
2018-09-17T21:07:35.026Z,57.45
2018-09-17T21:10:03.987Z,57.08
2018-09-17T21:12:32.932Z,57.34
2018-09-17T21:15:01.921Z,56.75
2018-09-17T21:17:30.848Z,57.25
2018-09-17T21:19:59.784Z,57.53
2018-09-17T21:22:28.745Z,57.66
2018-09-17T21:24:57.913Z,57.03
2018-09-17T21:27:26.771Z,57.48
2018-09-17T21:29:55.719Z,56.84
2018-09-17T21:32:24.672Z,57.66
2018-09-17T21:34:53.798Z,57.16
2018-09-17T21:37:23.080Z,57.54
2018-09-17T21:39:51.980Z,57.38
2018-09-17T21:42:20.927Z,57.59
2018-09-17T21:44:49.843Z,57.31
2018-09-17T21:47:19.037Z,58.06
2018-09-17T21:49:47.962Z,58.00
2018-09-17T21:52:16.892Z,58.41
2018-09-17T21:54:45.799Z,57.86
2018-09-17T21:57:14.841Z,56.84
2018-09-17T21:59:43.824Z,57.51
2018-09-17T22:02:13.791Z,56.65
2018-09-17T22:04:42.737Z,57.58
2018-09-17T22:07:11.620Z,57.50
2018-09-17T22:09:40.708Z,57.13
2018-09-17T22:12:09.668Z,56.59
2018-09-17T22:14:38.681Z,56.71
2018-09-17T22:17:07.656Z,56.43
2018-09-17T22:19:36.634Z,57.16
2018-09-17T22:22:05.571Z,57.44
2018-09-17T22:24:34.514Z,57.02
2018-09-17T22:27:03.589Z,57.46
2018-09-17T22:29:32.474Z,57.56
2018-09-17T22:32:01.413Z,56.91
2018-09-17T22:34:30.299Z,56.70
2018-09-17T22:36:59.370Z,56.63
2018-09-17T22:39:28.259Z,57.04
2018-09-17T22:41:57.188Z,57.04
2018-09-17T22:44:26.156Z,56.20
2018-09-17T22:46:55.424Z,55.95
2018-09-17T22:49:24.313Z,56.06
2018-09-17T22:51:53.264Z,57.21
2018-09-17T22:54:22.179Z,57.23
2018-09-17T22:56:51.173Z,55.96
2018-09-17T22:59:20.141Z,56.02
2018-09-17T23:01:49.040Z,56.73
2018-09-17T23:04:17.906Z,56.47
2018-09-17T23:06:46.795Z,56.11
2018-09-17T23:09:15.695Z,56.40
2018-09-17T23:11:44.618Z,56.26
2018-09-17T23:14:13.491Z,55.87
2018-09-17T23:16:42.408Z,56.22
2018-09-17T23:19:11.535Z,56.28
2018-09-17T23:21:40.524Z,56.44
2018-09-17T23:24:09.460Z,55.62
2018-09-17T23:26:38.350Z,55.92
2018-09-17T23:29:07.232Z,55.80
2018-09-17T23:31:36.180Z,56.44
2018-09-17T23:34:05.160Z,55.64
2018-09-17T23:36:34.056Z,56.14
2018-09-17T23:39:03.109Z,55.46
2018-09-17T23:41:32.005Z,55.86
2018-09-17T23:44:00.956Z,56.78
2018-09-17T23:46:29.856Z,56.36
2018-09-17T23:48:58.878Z,57.31
2018-09-17T23:51:27.815Z,56.33
2018-09-17T23:53:56.721Z,56.28
2018-09-17T23:56:25.650Z,55.96
2018-09-17T23:58:54.532Z,55.76
